DAL1514 KMIA-KJFK
Flight info
| Callsign | DAL1514 |
|---|---|
| Flight time | 2h 18m |
| Altitude | 37000 |
| Route | FOLZZ3 ALYRA PELCN Y309 FLRDA SAGGY CHIEZ Q161 KALDA Q108 SIE CAMRN5 |
| Aircraft | B738/M-SDE2E3FGHIRWXY/LB1 |
Departure
| Time | 2026-05-05 03:48 |
|---|---|
| Airport | Miami International Airport (KMIA) |
Arrival
| Time | 2026-05-05 06:06 |
|---|---|
| Airport | John F. Kennedy International Airport (KJFK) |
| Time | Latitude | Longitude | Altitude | Speed | Heading |
|---|---|---|---|---|---|
| 2026-05-05 03:23 | 25.79144 | -80.27414 | 33 ft | 0 kts | 87° |
| 2026-05-05 03:35 | 25.79143 | -80.27429 | 17 ft | 3 kts | 87° |
| 2026-05-05 03:35 | 25.79142 | -80.27451 | 18 ft | 3 kts | 87° |
| 2026-05-05 03:36 | 25.79141 | -80.27469 | 16 ft | 3 kts | 96° |
| 2026-05-05 03:36 | 25.79146 | -80.27487 | 17 ft | 3 kts | 141° |
| 2026-05-05 03:36 | 25.79162 | -80.27495 | 17 ft | 3 kts | 175° |
| 2026-05-05 03:36 | 25.79174 | -80.27496 | 16 ft | 1 kts | 177° |
| 2026-05-05 03:37 | 25.79177 | -80.27496 | 16 ft | 0 kts | 177° |
| 2026-05-05 03:38 | 25.79176 | -80.27496 | 14 ft | 1 kts | 178° |
| 2026-05-05 03:38 | 25.79151 | -80.27494 | 14 ft | 5 kts | 176° |
| 2026-05-05 03:38 | 25.79100 | -80.27491 | 14 ft | 10 kts | 178° |
| 2026-05-05 03:38 | 25.79008 | -80.27488 | 14 ft | 16 kts | 178° |
| 2026-05-05 03:39 | 25.78903 | -80.27540 | 14 ft | 17 kts | 234° |
| 2026-05-05 03:39 | 25.78882 | -80.27667 | 14 ft | 17 kts | 265° |
| 2026-05-05 03:39 | 25.78877 | -80.27793 | 14 ft | 16 kts | 274° |
| 2026-05-05 03:39 | 25.78924 | -80.27902 | 15 ft | 15 kts | 300° |
| 2026-05-05 03:40 | 25.78975 | -80.28004 | 15 ft | 15 kts | 299° |
| 2026-05-05 03:40 | 25.79024 | -80.28100 | 15 ft | 14 kts | 299° |
| 2026-05-05 03:40 | 25.79082 | -80.28211 | 15 ft | 20 kts | 300° |
| 2026-05-05 03:40 | 25.79168 | -80.28367 | 14 ft | 27 kts | 306° |
| 2026-05-05 03:41 | 25.79278 | -80.28526 | 14 ft | 25 kts | 299° |
| 2026-05-05 03:41 | 25.79362 | -80.28691 | 14 ft | 24 kts | 299° |
| 2026-05-05 03:41 | 25.79441 | -80.28846 | 14 ft | 23 kts | 300° |
| 2026-05-05 03:41 | 25.79518 | -80.28995 | 14 ft | 22 kts | 300° |
| 2026-05-05 03:42 | 25.79593 | -80.29141 | 14 ft | 21 kts | 300° |
| 2026-05-05 03:42 | 25.79664 | -80.29281 | 14 ft | 21 kts | 300° |
| 2026-05-05 03:42 | 25.79734 | -80.29419 | 14 ft | 20 kts | 300° |
| 2026-05-05 03:42 | 25.79802 | -80.29552 | 14 ft | 20 kts | 300° |
| 2026-05-05 03:43 | 25.79868 | -80.29681 | 14 ft | 19 kts | 298° |
| 2026-05-05 03:43 | 25.79924 | -80.29810 | 13 ft | 18 kts | 294° |
| 2026-05-05 03:43 | 25.79960 | -80.29900 | 13 ft | 0 kts | 291° |
| 2026-05-05 03:45 | 25.79962 | -80.29906 | 13 ft | 5 kts | 288° |
| 2026-05-05 03:45 | 25.79973 | -80.29951 | 12 ft | 0 kts | 286° |
| 2026-05-05 03:46 | 25.79986 | -80.30001 | 12 ft | 15 kts | 286° |
| 2026-05-05 03:46 | 25.80061 | -80.30105 | 14 ft | 19 kts | 26° |
| 2026-05-05 03:47 | 25.80077 | -80.30010 | 12 ft | 10 kts | 87° |
| 2026-05-05 03:47 | 25.80090 | -80.29697 | 13 ft | 77 kts | 87° |
| 2026-05-05 03:47 | 25.80125 | -80.28857 | 16 ft | 138 kts | 88° |
| 2026-05-05 03:47 | 25.80182 | -80.27637 | 288 ft | 170 kts | 85° |
| 2026-05-05 03:48 | 25.80267 | -80.26307 | 964 ft | 179 kts | 87° |
| 2026-05-05 03:48 | 25.79916 | -80.24923 | 1671 ft | 191 kts | 117° |
| 2026-05-05 03:48 | 25.79278 | -80.23561 | 2109 ft | 215 kts | 114° |
| 2026-05-05 03:48 | 25.78585 | -80.21996 | 2469 ft | 234 kts | 115° |
| 2026-05-05 03:49 | 25.77848 | -80.20342 | 2994 ft | 248 kts | 115° |
| 2026-05-05 03:49 | 25.77058 | -80.18582 | 3558 ft | 263 kts | 116° |
| 2026-05-05 03:49 | 25.76199 | -80.16751 | 4322 ft | 272 kts | 118° |
| 2026-05-05 03:49 | 25.75277 | -80.14896 | 5187 ft | 278 kts | 120° |
| 2026-05-05 03:50 | 25.74399 | -80.12934 | 5880 ft | 290 kts | 107° |
| 2026-05-05 03:50 | 25.74315 | -80.10741 | 6775 ft | 293 kts | 76° |
| 2026-05-05 03:50 | 25.75226 | -80.08703 | 7627 ft | 294 kts | 51° |
| 2026-05-05 03:50 | 25.76546 | -80.06945 | 8409 ft | 301 kts | 47° |
| 2026-05-05 03:51 | 25.77933 | -80.05215 | 9168 ft | 307 kts | 46° |
| 2026-05-05 03:51 | 25.79376 | -80.03437 | 9973 ft | 313 kts | 46° |
| 2026-05-05 03:51 | 25.80855 | -80.01607 | 10504 ft | 328 kts | 46° |
| 2026-05-05 03:51 | 25.82435 | -79.99641 | 10687 ft | 354 kts | 46° |
| 2026-05-05 03:52 | 25.84125 | -79.97524 | 10867 ft | 378 kts | 47° |
| 2026-05-05 03:52 | 25.85910 | -79.95272 | 11026 ft | 399 kts | 47° |
| 2026-05-05 03:52 | 25.87783 | -79.92898 | 11199 ft | 417 kts | 47° |
| 2026-05-05 03:52 | 25.89715 | -79.90441 | 11581 ft | 426 kts | 47° |
| 2026-05-05 03:53 | 25.91670 | -79.87949 | 12198 ft | 428 kts | 47° |
| 2026-05-05 03:53 | 25.93604 | -79.85481 | 12829 ft | 430 kts | 47° |
| 2026-05-05 03:53 | 25.95579 | -79.82962 | 13348 ft | 435 kts | 47° |
| 2026-05-05 03:53 | 25.97579 | -79.80411 | 13838 ft | 440 kts | 47° |
| 2026-05-05 03:54 | 25.99597 | -79.77837 | 14280 ft | 444 kts | 47° |
| 2026-05-05 03:54 | 26.01637 | -79.75232 | 14736 ft | 448 kts | 46° |
| 2026-05-05 03:54 | 26.03687 | -79.72614 | 15213 ft | 451 kts | 46° |
| 2026-05-05 03:54 | 26.05753 | -79.69972 | 15669 ft | 454 kts | 46° |
| 2026-05-05 03:55 | 26.07836 | -79.67309 | 16108 ft | 458 kts | 46° |
| 2026-05-05 03:55 | 26.09898 | -79.64671 | 16732 ft | 455 kts | 46° |
| 2026-05-05 03:55 | 26.11898 | -79.61990 | 17728 ft | 446 kts | 49° |
| 2026-05-05 03:55 | 26.13700 | -79.59215 | 18672 ft | 438 kts | 52° |
| 2026-05-05 03:56 | 26.15395 | -79.56445 | 19614 ft | 428 kts | 52° |
| 2026-05-05 03:56 | 26.17045 | -79.53732 | 20594 ft | 418 kts | 52° |
| 2026-05-05 03:56 | 26.18671 | -79.51093 | 21637 ft | 407 kts | 51° |
| 2026-05-05 03:56 | 26.20278 | -79.48522 | 22506 ft | 403 kts | 50° |
| 2026-05-05 03:57 | 26.21901 | -79.45956 | 23040 ft | 408 kts | 50° |
| 2026-05-05 03:57 | 26.23550 | -79.43361 | 23506 ft | 414 kts | 50° |
| 2026-05-05 03:57 | 26.25222 | -79.40727 | 23917 ft | 419 kts | 50° |
| 2026-05-05 03:57 | 26.26887 | -79.38098 | 24358 ft | 422 kts | 50° |
| 2026-05-05 03:58 | 26.28619 | -79.35453 | 24869 ft | 420 kts | 44° |
| 2026-05-05 03:58 | 26.30804 | -79.33386 | 25318 ft | 409 kts | 25° |
| 2026-05-05 03:58 | 26.33219 | -79.31711 | 25845 ft | 409 kts | 25° |
| 2026-05-05 03:58 | 26.35645 | -79.30032 | 26306 ft | 412 kts | 25° |
| 2026-05-05 03:59 | 26.38080 | -79.28337 | 26756 ft | 414 kts | 25° |
| 2026-05-05 03:59 | 26.40528 | -79.26620 | 27214 ft | 417 kts | 25° |
| 2026-05-05 03:59 | 26.42986 | -79.24883 | 27664 ft | 419 kts | 25° |
| 2026-05-05 03:59 | 26.45450 | -79.23134 | 28110 ft | 421 kts | 25° |
| 2026-05-05 04:00 | 26.47893 | -79.21394 | 28548 ft | 424 kts | 25° |
| 2026-05-05 04:00 | 26.50395 | -79.19609 | 28920 ft | 428 kts | 25° |
| 2026-05-05 04:00 | 26.52907 | -79.17815 | 29348 ft | 430 kts | 25° |
| 2026-05-05 04:00 | 26.55434 | -79.16008 | 29786 ft | 432 kts | 25° |
| 2026-05-05 04:01 | 26.57968 | -79.14195 | 30190 ft | 434 kts | 25° |
| 2026-05-05 04:01 | 26.60519 | -79.12369 | 30524 ft | 436 kts | 25° |
| 2026-05-05 04:01 | 26.63077 | -79.10537 | 30872 ft | 438 kts | 25° |
| 2026-05-05 04:01 | 26.65644 | -79.08698 | 31224 ft | 439 kts | 25° |
| 2026-05-05 04:02 | 26.68211 | -79.06857 | 31566 ft | 440 kts | 24° |
| 2026-05-05 04:02 | 26.70761 | -79.05029 | 31878 ft | 442 kts | 25° |
| 2026-05-05 04:02 | 26.73368 | -79.03161 | 32026 ft | 448 kts | 25° |
| 2026-05-05 04:02 | 26.76008 | -79.01269 | 32287 ft | 452 kts | 25° |
| 2026-05-05 04:03 | 26.78658 | -78.99366 | 32604 ft | 453 kts | 25° |
| 2026-05-05 04:03 | 26.81310 | -78.97459 | 32960 ft | 453 kts | 25° |
| 2026-05-05 04:03 | 26.83963 | -78.95549 | 33288 ft | 454 kts | 25° |
| 2026-05-05 04:03 | 26.86623 | -78.93634 | 33579 ft | 456 kts | 25° |
| 2026-05-05 04:04 | 26.89294 | -78.91711 | 33835 ft | 457 kts | 25° |
| 2026-05-05 04:04 | 26.91937 | -78.89808 | 34105 ft | 459 kts | 25° |
| 2026-05-05 04:04 | 26.94627 | -78.87870 | 34330 ft | 460 kts | 25° |
| 2026-05-05 04:04 | 26.97326 | -78.85925 | 34539 ft | 462 kts | 25° |
| 2026-05-05 04:05 | 27.00033 | -78.83972 | 34732 ft | 464 kts | 24° |
| 2026-05-05 04:05 | 27.02757 | -78.82006 | 34957 ft | 466 kts | 24° |
| 2026-05-05 04:05 | 27.05487 | -78.80034 | 35160 ft | 468 kts | 24° |
| 2026-05-05 04:05 | 27.08233 | -78.78049 | 35349 ft | 470 kts | 24° |
| 2026-05-05 04:06 | 27.10983 | -78.76060 | 35542 ft | 472 kts | 24° |
| 2026-05-05 04:06 | 27.13708 | -78.74088 | 35723 ft | 473 kts | 24° |
| 2026-05-05 04:06 | 27.16479 | -78.72081 | 35913 ft | 475 kts | 24° |
| 2026-05-05 04:06 | 27.19254 | -78.70068 | 36160 ft | 474 kts | 24° |
| 2026-05-05 04:07 | 27.22021 | -78.68060 | 36422 ft | 474 kts | 24° |
| 2026-05-05 04:07 | 27.24797 | -78.66048 | 36524 ft | 477 kts | 24° |
| 2026-05-05 04:07 | 27.27619 | -78.64084 | 36643 ft | 473 kts | 17° |
| 2026-05-05 04:07 | 27.30640 | -78.62921 | 36853 ft | 448 kts | 359° |
| 2026-05-05 04:08 | 27.33695 | -78.62492 | 37100 ft | 442 kts | 356° |
| 2026-05-05 04:08 | 27.36730 | -78.62139 | 37074 ft | 446 kts | 356° |
| 2026-05-05 04:08 | 27.42959 | -78.61423 | 37087 ft | 454 kts | 356° |
| 2026-05-05 04:09 | 27.49284 | -78.60646 | 37081 ft | 460 kts | 357° |
| 2026-05-05 04:09 | 27.55662 | -78.59824 | 37076 ft | 462 kts | 357° |
| 2026-05-05 04:10 | 27.62064 | -78.58987 | 37117 ft | 464 kts | 357° |
| 2026-05-05 04:10 | 27.68451 | -78.58153 | 37088 ft | 465 kts | 357° |
| 2026-05-05 04:11 | 27.74885 | -78.57313 | 37080 ft | 466 kts | 357° |
| 2026-05-05 04:11 | 27.81314 | -78.56473 | 37081 ft | 465 kts | 357° |
| 2026-05-05 04:12 | 27.87738 | -78.55634 | 37081 ft | 464 kts | 357° |
| 2026-05-05 04:12 | 27.94110 | -78.54802 | 37085 ft | 465 kts | 357° |
| 2026-05-05 04:13 | 28.00530 | -78.53962 | 37086 ft | 464 kts | 357° |
| 2026-05-05 04:13 | 28.06951 | -78.53121 | 37088 ft | 464 kts | 357° |
| 2026-05-05 04:14 | 28.13366 | -78.52279 | 37083 ft | 464 kts | 357° |
| 2026-05-05 04:14 | 28.19737 | -78.51443 | 37120 ft | 465 kts | 358° |
| 2026-05-05 04:15 | 28.26173 | -78.50599 | 37103 ft | 466 kts | 358° |
| 2026-05-05 04:15 | 28.32618 | -78.49750 | 37092 ft | 467 kts | 358° |
| 2026-05-05 04:16 | 28.39072 | -78.48899 | 37092 ft | 467 kts | 358° |
| 2026-05-05 04:16 | 28.45527 | -78.48047 | 37098 ft | 467 kts | 358° |
| 2026-05-05 04:17 | 28.51951 | -78.47199 | 37099 ft | 469 kts | 358° |
| 2026-05-05 04:17 | 28.58435 | -78.46342 | 37099 ft | 469 kts | 358° |
| 2026-05-05 04:18 | 28.64927 | -78.45482 | 37098 ft | 470 kts | 358° |
| 2026-05-05 04:18 | 28.71427 | -78.44619 | 37098 ft | 470 kts | 358° |
| 2026-05-05 04:19 | 28.77884 | -78.43762 | 37119 ft | 471 kts | 358° |
| 2026-05-05 04:19 | 28.84410 | -78.42895 | 37112 ft | 472 kts | 358° |
| 2026-05-05 04:20 | 28.90943 | -78.42025 | 37103 ft | 473 kts | 358° |
| 2026-05-05 04:20 | 28.97481 | -78.41153 | 37104 ft | 473 kts | 358° |
| 2026-05-05 04:21 | 29.03979 | -78.40286 | 37159 ft | 473 kts | 358° |
| 2026-05-05 04:21 | 29.10536 | -78.39411 | 37118 ft | 475 kts | 358° |
| 2026-05-05 04:22 | 29.17106 | -78.38531 | 37109 ft | 476 kts | 358° |
| 2026-05-05 04:22 | 29.23680 | -78.37650 | 37112 ft | 476 kts | 358° |
| 2026-05-05 04:23 | 29.30211 | -78.36774 | 37111 ft | 476 kts | 358° |
| 2026-05-05 04:23 | 29.36789 | -78.35890 | 37109 ft | 477 kts | 359° |
| 2026-05-05 04:24 | 29.43376 | -78.35004 | 37109 ft | 477 kts | 359° |
| 2026-05-05 04:25 | 29.53202 | -78.34335 | 37129 ft | 464 kts | 348° |
| 2026-05-05 04:25 | 29.59574 | -78.34940 | 37120 ft | 462 kts | 347° |
| 2026-05-05 04:26 | 29.66001 | -78.35553 | 37125 ft | 464 kts | 347° |
| 2026-05-05 04:26 | 29.72452 | -78.36068 | 37118 ft | 465 kts | 348° |
| 2026-05-05 04:27 | 29.78910 | -78.36541 | 37116 ft | 465 kts | 348° |
| 2026-05-05 04:27 | 29.85324 | -78.37009 | 37118 ft | 465 kts | 348° |
| 2026-05-05 04:28 | 29.91780 | -78.37486 | 37139 ft | 465 kts | 348° |
| 2026-05-05 04:28 | 29.98242 | -78.37965 | 37129 ft | 465 kts | 348° |
| 2026-05-05 04:29 | 30.04703 | -78.38445 | 37123 ft | 465 kts | 348° |
| 2026-05-05 04:29 | 30.11118 | -78.38922 | 37128 ft | 465 kts | 348° |
| 2026-05-05 04:30 | 30.17658 | -78.38638 | 37142 ft | 477 kts | 359° |
| 2026-05-05 04:30 | 30.24253 | -78.37540 | 37132 ft | 479 kts | 0° |
| 2026-05-05 04:31 | 30.30846 | -78.36474 | 37123 ft | 478 kts | 359° |
| 2026-05-05 04:31 | 30.37397 | -78.35481 | 37130 ft | 478 kts | 359° |
| 2026-05-05 04:32 | 30.43995 | -78.34409 | 37174 ft | 481 kts | 1° |
| 2026-05-05 04:32 | 30.50577 | -78.32905 | 37131 ft | 482 kts | 4° |
| 2026-05-05 04:33 | 30.57134 | -78.31306 | 37123 ft | 480 kts | 3° |
| 2026-05-05 04:33 | 30.63622 | -78.29770 | 37125 ft | 478 kts | 3° |
| 2026-05-05 04:34 | 30.70144 | -78.28256 | 37130 ft | 477 kts | 3° |
| 2026-05-05 04:34 | 30.76660 | -78.26747 | 37136 ft | 478 kts | 3° |
| 2026-05-05 04:35 | 30.83177 | -78.25231 | 37137 ft | 478 kts | 3° |
| 2026-05-05 04:35 | 30.89650 | -78.23722 | 37129 ft | 477 kts | 3° |
| 2026-05-05 04:36 | 30.96159 | -78.22214 | 37132 ft | 477 kts | 2° |
| 2026-05-05 04:36 | 31.02678 | -78.20765 | 37138 ft | 477 kts | 2° |
| 2026-05-05 04:37 | 31.09201 | -78.19323 | 37138 ft | 477 kts | 2° |
| 2026-05-05 04:37 | 31.15730 | -78.17870 | 37133 ft | 477 kts | 2° |
| 2026-05-05 04:38 | 31.22211 | -78.16420 | 37137 ft | 477 kts | 2° |
| 2026-05-05 04:38 | 31.28739 | -78.14958 | 37134 ft | 478 kts | 3° |
| 2026-05-05 04:39 | 31.35272 | -78.13492 | 37142 ft | 478 kts | 3° |
| 2026-05-05 04:39 | 31.41805 | -78.12025 | 37131 ft | 478 kts | 3° |
| 2026-05-05 04:40 | 31.48294 | -78.10729 | 37127 ft | 475 kts | 0° |
| 2026-05-05 04:40 | 31.54827 | -78.09668 | 37156 ft | 474 kts | 0° |
| 2026-05-05 04:41 | 31.61367 | -78.08609 | 37147 ft | 474 kts | 1° |
| 2026-05-05 04:41 | 31.67904 | -78.07509 | 37132 ft | 474 kts | 1° |
| 2026-05-05 04:42 | 31.74388 | -78.06397 | 37134 ft | 474 kts | 1° |
| 2026-05-05 04:42 | 31.80916 | -78.05272 | 37149 ft | 474 kts | 1° |
| 2026-05-05 04:43 | 31.87442 | -78.04147 | 37137 ft | 474 kts | 1° |
| 2026-05-05 04:43 | 31.93975 | -78.03020 | 37178 ft | 476 kts | 1° |
| 2026-05-05 04:43 | 31.97203 | -78.02463 | 37358 ft | 475 kts | 1° |
| 2026-05-05 04:44 | 32.00469 | -78.01898 | 37599 ft | 473 kts | 1° |
| 2026-05-05 04:44 | 32.03720 | -78.01335 | 37844 ft | 472 kts | 1° |
| 2026-05-05 04:44 | 32.06965 | -78.00772 | 38103 ft | 471 kts | 2° |
| 2026-05-05 04:44 | 32.10205 | -78.00211 | 38291 ft | 471 kts | 2° |
| 2026-05-05 04:45 | 32.13444 | -77.99651 | 38463 ft | 471 kts | 1° |
| 2026-05-05 04:45 | 32.16684 | -77.99089 | 38652 ft | 470 kts | 1° |
| 2026-05-05 04:45 | 32.19874 | -77.98536 | 38822 ft | 470 kts | 1° |
| 2026-05-05 04:45 | 32.23108 | -77.97975 | 38953 ft | 470 kts | 1° |
| 2026-05-05 04:46 | 32.26336 | -77.97414 | 39077 ft | 469 kts | 1° |
| 2026-05-05 04:46 | 32.32791 | -77.96292 | 39145 ft | 469 kts | 2° |
| 2026-05-05 04:47 | 32.39243 | -77.95169 | 39126 ft | 469 kts | 2° |
| 2026-05-05 04:47 | 32.45733 | -77.94039 | 39146 ft | 473 kts | 2° |
| 2026-05-05 04:48 | 32.52167 | -77.92231 | 39144 ft | 486 kts | 14° |
| 2026-05-05 04:48 | 32.58529 | -77.89397 | 39160 ft | 490 kts | 15° |
| 2026-05-05 04:49 | 32.64895 | -77.86501 | 39137 ft | 489 kts | 15° |
| 2026-05-05 04:49 | 32.71261 | -77.83667 | 39123 ft | 488 kts | 14° |
| 2026-05-05 04:50 | 32.77572 | -77.80890 | 39126 ft | 486 kts | 14° |
| 2026-05-05 04:50 | 32.83904 | -77.78113 | 39127 ft | 484 kts | 14° |
| 2026-05-05 04:51 | 32.90219 | -77.75355 | 39130 ft | 483 kts | 14° |
| 2026-05-05 04:51 | 32.96516 | -77.72595 | 39130 ft | 482 kts | 14° |
| 2026-05-05 04:52 | 33.02759 | -77.69848 | 39130 ft | 481 kts | 14° |
| 2026-05-05 04:52 | 33.09041 | -77.67079 | 39146 ft | 481 kts | 15° |
| 2026-05-05 04:53 | 33.15312 | -77.64310 | 39136 ft | 480 kts | 15° |
| 2026-05-05 04:53 | 33.21579 | -77.61538 | 39129 ft | 480 kts | 15° |
| 2026-05-05 04:54 | 33.27835 | -77.58767 | 39124 ft | 480 kts | 14° |
| 2026-05-05 04:54 | 33.34059 | -77.56008 | 39146 ft | 480 kts | 15° |
| 2026-05-05 04:55 | 33.40325 | -77.53225 | 39128 ft | 481 kts | 15° |
| 2026-05-05 04:55 | 33.46597 | -77.50434 | 39126 ft | 481 kts | 15° |
| 2026-05-05 04:56 | 33.52830 | -77.47656 | 39126 ft | 481 kts | 15° |
| 2026-05-05 04:56 | 33.59107 | -77.44855 | 39148 ft | 481 kts | 15° |
| 2026-05-05 04:57 | 33.65382 | -77.42050 | 39130 ft | 481 kts | 15° |
| 2026-05-05 04:57 | 33.71650 | -77.39243 | 39119 ft | 480 kts | 15° |
| 2026-05-05 04:58 | 33.77861 | -77.36458 | 39122 ft | 480 kts | 15° |
| 2026-05-05 04:58 | 33.84111 | -77.33651 | 39137 ft | 479 kts | 15° |
| 2026-05-05 04:59 | 33.90356 | -77.30843 | 39122 ft | 479 kts | 15° |
| 2026-05-05 04:59 | 33.96589 | -77.28035 | 39113 ft | 478 kts | 15° |
| 2026-05-05 05:00 | 34.02813 | -77.25227 | 39113 ft | 477 kts | 15° |
| 2026-05-05 05:00 | 34.08992 | -77.22435 | 39132 ft | 477 kts | 15° |
| 2026-05-05 05:01 | 34.15211 | -77.19620 | 39128 ft | 478 kts | 15° |
| 2026-05-05 05:01 | 34.21437 | -77.16798 | 39116 ft | 478 kts | 15° |
| 2026-05-05 05:02 | 34.27664 | -77.13971 | 39117 ft | 478 kts | 15° |
| 2026-05-05 05:02 | 34.33846 | -77.11160 | 39130 ft | 478 kts | 15° |
| 2026-05-05 05:03 | 34.40077 | -77.08322 | 39123 ft | 478 kts | 15° |
| 2026-05-05 05:03 | 34.46305 | -77.05480 | 39119 ft | 478 kts | 15° |
| 2026-05-05 05:04 | 34.52532 | -77.02635 | 39120 ft | 478 kts | 15° |
| 2026-05-05 05:04 | 34.58709 | -76.99808 | 39128 ft | 478 kts | 15° |
| 2026-05-05 05:05 | 34.64928 | -76.96957 | 39122 ft | 477 kts | 15° |
| 2026-05-05 05:05 | 34.71139 | -76.94105 | 39119 ft | 477 kts | 15° |
| 2026-05-05 05:06 | 34.77342 | -76.91252 | 39118 ft | 476 kts | 15° |
| 2026-05-05 05:06 | 34.83497 | -76.88417 | 39124 ft | 476 kts | 15° |
| 2026-05-05 05:07 | 34.89691 | -76.85560 | 39105 ft | 476 kts | 15° |
| 2026-05-05 05:07 | 34.95877 | -76.82701 | 39114 ft | 476 kts | 15° |
| 2026-05-05 05:08 | 35.02068 | -76.79836 | 39114 ft | 476 kts | 15° |
| 2026-05-05 05:08 | 35.08220 | -76.76984 | 39114 ft | 476 kts | 15° |
| 2026-05-05 05:09 | 35.14415 | -76.74108 | 39107 ft | 476 kts | 15° |
| 2026-05-05 05:09 | 35.20610 | -76.71226 | 39105 ft | 476 kts | 15° |
| 2026-05-05 05:10 | 35.26804 | -76.68341 | 39100 ft | 476 kts | 15° |
| 2026-05-05 05:10 | 35.32994 | -76.65452 | 39100 ft | 476 kts | 15° |
| 2026-05-05 05:11 | 35.39146 | -76.62577 | 39103 ft | 476 kts | 15° |
| 2026-05-05 05:11 | 35.45333 | -76.59680 | 39103 ft | 476 kts | 16° |
| 2026-05-05 05:12 | 35.51524 | -76.56777 | 39118 ft | 476 kts | 16° |
| 2026-05-05 05:12 | 35.57722 | -76.53866 | 39106 ft | 477 kts | 16° |
| 2026-05-05 05:13 | 35.63872 | -76.50973 | 39091 ft | 477 kts | 16° |
| 2026-05-05 05:13 | 35.70067 | -76.48053 | 39086 ft | 477 kts | 16° |
| 2026-05-05 05:14 | 35.76271 | -76.45125 | 39108 ft | 478 kts | 16° |
| 2026-05-05 05:14 | 35.82480 | -76.42189 | 39094 ft | 478 kts | 16° |
| 2026-05-05 05:15 | 35.88652 | -76.39265 | 39091 ft | 479 kts | 16° |
| 2026-05-05 05:15 | 35.94864 | -76.36318 | 39095 ft | 479 kts | 16° |
| 2026-05-05 05:16 | 36.01081 | -76.33363 | 39101 ft | 479 kts | 16° |
| 2026-05-05 05:16 | 36.07292 | -76.30406 | 39079 ft | 478 kts | 16° |
| 2026-05-05 05:17 | 36.13451 | -76.27469 | 39081 ft | 477 kts | 16° |
| 2026-05-05 05:17 | 36.19646 | -76.24510 | 39097 ft | 477 kts | 16° |
| 2026-05-05 05:18 | 36.25837 | -76.21548 | 39088 ft | 477 kts | 16° |
| 2026-05-05 05:18 | 36.32022 | -76.18584 | 39082 ft | 476 kts | 16° |
| 2026-05-05 05:19 | 36.38157 | -76.15638 | 39082 ft | 476 kts | 16° |
| 2026-05-05 05:19 | 36.44330 | -76.12669 | 39093 ft | 476 kts | 17° |
| 2026-05-05 05:20 | 36.50506 | -76.09694 | 39083 ft | 476 kts | 17° |
| 2026-05-05 05:20 | 36.56681 | -76.06715 | 39063 ft | 476 kts | 17° |
| 2026-05-05 05:21 | 36.62821 | -76.03747 | 39065 ft | 476 kts | 17° |
| 2026-05-05 05:21 | 36.68995 | -76.00757 | 39070 ft | 476 kts | 17° |
| 2026-05-05 05:22 | 36.75170 | -75.97761 | 39046 ft | 476 kts | 17° |
| 2026-05-05 05:22 | 36.81340 | -75.94763 | 39046 ft | 476 kts | 17° |
| 2026-05-05 05:23 | 36.87463 | -75.91783 | 39068 ft | 475 kts | 17° |
| 2026-05-05 05:23 | 36.93613 | -75.88784 | 39050 ft | 474 kts | 17° |
| 2026-05-05 05:24 | 36.99754 | -75.85784 | 39043 ft | 473 kts | 17° |
| 2026-05-05 05:24 | 37.05877 | -75.82788 | 39038 ft | 472 kts | 17° |
| 2026-05-05 05:25 | 37.11944 | -75.79815 | 39052 ft | 471 kts | 17° |
| 2026-05-05 05:25 | 37.18043 | -75.76819 | 39024 ft | 470 kts | 17° |
| 2026-05-05 05:26 | 37.24130 | -75.73826 | 39026 ft | 469 kts | 17° |
| 2026-05-05 05:26 | 37.30206 | -75.70833 | 39030 ft | 469 kts | 17° |
| 2026-05-05 05:27 | 37.36280 | -75.67836 | 39033 ft | 469 kts | 17° |
| 2026-05-05 05:27 | 37.45335 | -75.63357 | 39032 ft | 468 kts | 17° |
| 2026-05-05 05:28 | 37.51399 | -75.60351 | 39020 ft | 468 kts | 17° |
| 2026-05-05 05:28 | 37.57458 | -75.57343 | 39025 ft | 468 kts | 17° |
| 2026-05-05 05:29 | 37.63472 | -75.54351 | 39023 ft | 468 kts | 17° |
| 2026-05-05 05:29 | 37.69529 | -75.51333 | 39018 ft | 468 kts | 17° |
| 2026-05-05 05:30 | 37.75585 | -75.48310 | 39033 ft | 468 kts | 18° |
| 2026-05-05 05:30 | 37.81651 | -75.45277 | 39018 ft | 469 kts | 17° |
| 2026-05-05 05:31 | 37.87681 | -75.42256 | 39016 ft | 470 kts | 17° |
| 2026-05-05 05:31 | 37.93758 | -75.39207 | 39021 ft | 470 kts | 17° |
| 2026-05-05 05:32 | 37.99842 | -75.36148 | 39008 ft | 471 kts | 17° |
| 2026-05-05 05:32 | 38.05942 | -75.33076 | 39011 ft | 472 kts | 17° |
| 2026-05-05 05:33 | 38.12010 | -75.30014 | 39000 ft | 473 kts | 17° |
| 2026-05-05 05:33 | 38.18118 | -75.26927 | 39005 ft | 473 kts | 18° |
| 2026-05-05 05:34 | 38.24235 | -75.23829 | 39012 ft | 473 kts | 18° |
| 2026-05-05 05:34 | 38.30353 | -75.20725 | 39007 ft | 473 kts | 18° |
| 2026-05-05 05:35 | 38.35432 | -75.18144 | 39009 ft | 473 kts | 18° |
| 2026-05-05 05:35 | 38.42535 | -75.14528 | 39021 ft | 473 kts | 18° |
| 2026-05-05 05:36 | 38.48636 | -75.11416 | 39002 ft | 472 kts | 18° |
| 2026-05-05 05:36 | 38.53707 | -75.08825 | 38992 ft | 471 kts | 18° |
| 2026-05-05 05:37 | 38.59790 | -75.05712 | 38992 ft | 471 kts | 18° |
| 2026-05-05 05:37 | 38.66850 | -75.02091 | 38985 ft | 470 kts | 18° |
| 2026-05-05 05:38 | 38.71939 | -74.99477 | 38981 ft | 470 kts | 18° |
| 2026-05-05 05:38 | 38.77972 | -74.96372 | 38981 ft | 470 kts | 18° |
| 2026-05-05 05:39 | 38.84037 | -74.93246 | 38995 ft | 470 kts | 18° |
| 2026-05-05 05:39 | 38.91095 | -74.89599 | 38990 ft | 471 kts | 18° |
| 2026-05-05 05:40 | 38.96145 | -74.86986 | 38981 ft | 471 kts | 18° |
| 2026-05-05 05:40 | 39.02221 | -74.83835 | 38985 ft | 471 kts | 18° |
| 2026-05-05 05:41 | 39.08297 | -74.80676 | 38981 ft | 471 kts | 19° |
| 2026-05-05 05:41 | 39.11177 | -74.78606 | 38953 ft | 480 kts | 36° |
| 2026-05-05 05:41 | 39.13729 | -74.75833 | 39000 ft | 480 kts | 37° |
| 2026-05-05 05:42 | 39.18782 | -74.70174 | 38973 ft | 481 kts | 37° |
| 2026-05-05 05:42 | 39.23842 | -74.64609 | 38973 ft | 481 kts | 37° |
| 2026-05-05 05:43 | 39.28966 | -74.59050 | 38958 ft | 481 kts | 36° |
| 2026-05-05 05:43 | 39.34091 | -74.53490 | 38961 ft | 481 kts | 37° |
| 2026-05-05 05:44 | 39.36654 | -74.50702 | 38636 ft | 481 kts | 37° |
| 2026-05-05 05:44 | 39.39197 | -74.47931 | 37954 ft | 479 kts | 37° |
| 2026-05-05 05:44 | 39.41711 | -74.45190 | 37296 ft | 477 kts | 37° |
| 2026-05-05 05:44 | 39.44232 | -74.42439 | 36868 ft | 471 kts | 37° |
| 2026-05-05 05:45 | 39.46730 | -74.39710 | 36277 ft | 469 kts | 37° |
| 2026-05-05 05:45 | 39.49217 | -74.36993 | 35676 ft | 468 kts | 38° |
| 2026-05-05 05:45 | 39.51705 | -74.34272 | 34990 ft | 468 kts | 38° |
| 2026-05-05 05:45 | 39.54191 | -74.31551 | 34314 ft | 468 kts | 38° |
| 2026-05-05 05:46 | 39.56680 | -74.28822 | 33568 ft | 468 kts | 38° |
| 2026-05-05 05:46 | 39.59165 | -74.26096 | 32860 ft | 467 kts | 38° |
| 2026-05-05 05:46 | 39.61586 | -74.23435 | 32317 ft | 461 kts | 39° |
| 2026-05-05 05:46 | 39.64046 | -74.20735 | 31539 ft | 463 kts | 39° |
| 2026-05-05 05:47 | 39.66504 | -74.18031 | 30753 ft | 465 kts | 38° |
| 2026-05-05 05:47 | 39.68974 | -74.15310 | 29919 ft | 467 kts | 39° |
| 2026-05-05 05:47 | 39.71458 | -74.12571 | 28907 ft | 469 kts | 39° |
| 2026-05-05 05:47 | 39.73950 | -74.09821 | 27973 ft | 470 kts | 39° |
| 2026-05-05 05:48 | 39.76445 | -74.07063 | 27003 ft | 472 kts | 39° |
| 2026-05-05 05:48 | 39.78949 | -74.04292 | 26004 ft | 474 kts | 39° |
| 2026-05-05 05:48 | 39.81453 | -74.01520 | 25295 ft | 470 kts | 39° |
| 2026-05-05 05:48 | 39.83904 | -73.98823 | 24581 ft | 466 kts | 37° |
| 2026-05-05 05:49 | 39.86587 | -73.96464 | 23643 ft | 468 kts | 27° |
| 2026-05-05 05:49 | 39.89475 | -73.94543 | 22760 ft | 466 kts | 25° |
| 2026-05-05 05:49 | 39.92368 | -73.92652 | 21996 ft | 463 kts | 25° |
| 2026-05-05 05:49 | 39.95213 | -73.90727 | 21250 ft | 458 kts | 27° |
| 2026-05-05 05:50 | 39.98011 | -73.88764 | 20532 ft | 455 kts | 26° |
| 2026-05-05 05:50 | 40.00773 | -73.86801 | 19847 ft | 450 kts | 26° |
| 2026-05-05 05:50 | 40.03442 | -73.84695 | 19145 ft | 448 kts | 33° |
| 2026-05-05 05:50 | 40.05910 | -73.82238 | 18437 ft | 445 kts | 37° |
| 2026-05-05 05:51 | 40.08298 | -73.79684 | 17658 ft | 442 kts | 37° |
| 2026-05-05 05:51 | 40.10647 | -73.77216 | 16952 ft | 437 kts | 36° |
| 2026-05-05 05:51 | 40.13031 | -73.74793 | 16266 ft | 432 kts | 36° |
| 2026-05-05 05:51 | 40.15400 | -73.72424 | 15593 ft | 427 kts | 35° |
| 2026-05-05 05:52 | 40.17749 | -73.70078 | 14926 ft | 423 kts | 35° |
| 2026-05-05 05:52 | 40.20073 | -73.67751 | 14270 ft | 419 kts | 35° |
| 2026-05-05 05:52 | 40.22372 | -73.65444 | 13577 ft | 415 kts | 35° |
| 2026-05-05 05:52 | 40.24654 | -73.63150 | 12849 ft | 412 kts | 35° |
| 2026-05-05 05:53 | 40.26888 | -73.60903 | 12176 ft | 408 kts | 35° |
| 2026-05-05 05:53 | 40.29125 | -73.58647 | 11520 ft | 404 kts | 35° |
| 2026-05-05 05:53 | 40.31332 | -73.56426 | 11147 ft | 393 kts | 34° |
| 2026-05-05 05:53 | 40.33651 | -73.54769 | 10938 ft | 371 kts | 13° |
| 2026-05-05 05:54 | 40.36101 | -73.54085 | 10852 ft | 352 kts | 5° |
| 2026-05-05 05:54 | 40.38469 | -73.53525 | 10702 ft | 340 kts | 6° |
| 2026-05-05 05:54 | 40.40758 | -73.52991 | 10554 ft | 329 kts | 6° |
| 2026-05-05 05:54 | 40.42975 | -73.52470 | 10413 ft | 319 kts | 6° |
| 2026-05-05 05:55 | 40.45127 | -73.51958 | 10282 ft | 309 kts | 6° |
| 2026-05-05 05:55 | 40.47186 | -73.51463 | 10157 ft | 301 kts | 6° |
| 2026-05-05 05:55 | 40.49213 | -73.50973 | 10040 ft | 293 kts | 6° |
| 2026-05-05 05:55 | 40.51198 | -73.50491 | 9795 ft | 289 kts | 6° |
| 2026-05-05 05:56 | 40.53170 | -73.50012 | 9498 ft | 287 kts | 6° |
| 2026-05-05 05:56 | 40.55129 | -73.49535 | 9206 ft | 286 kts | 6° |
| 2026-05-05 05:56 | 40.57079 | -73.49059 | 8912 ft | 284 kts | 6° |
| 2026-05-05 05:56 | 40.59018 | -73.48584 | 8630 ft | 283 kts | 6° |
| 2026-05-05 05:57 | 40.60950 | -73.48111 | 8337 ft | 282 kts | 6° |
| 2026-05-05 05:57 | 40.62848 | -73.47646 | 8052 ft | 281 kts | 6° |
| 2026-05-05 05:57 | 40.64769 | -73.47174 | 7760 ft | 280 kts | 6° |
| 2026-05-05 05:57 | 40.66687 | -73.46703 | 7473 ft | 280 kts | 6° |
| 2026-05-05 05:58 | 40.68591 | -73.46191 | 7185 ft | 281 kts | 12° |
| 2026-05-05 05:58 | 40.70398 | -73.45150 | 6908 ft | 284 kts | 23° |
| 2026-05-05 05:58 | 40.72156 | -73.43971 | 6629 ft | 283 kts | 22° |
| 2026-05-05 05:58 | 40.73931 | -73.42859 | 6341 ft | 281 kts | 14° |
| 2026-05-05 05:59 | 40.75807 | -73.42639 | 6047 ft | 266 kts | 342° |
| 2026-05-05 05:59 | 40.77439 | -73.43557 | 5713 ft | 256 kts | 319° |
| 2026-05-05 05:59 | 40.78695 | -73.45151 | 5371 ft | 248 kts | 300° |
| 2026-05-05 05:59 | 40.79626 | -73.47052 | 5042 ft | 247 kts | 295° |
| 2026-05-05 06:00 | 40.80508 | -73.49007 | 4689 ft | 249 kts | 294° |
| 2026-05-05 06:00 | 40.81397 | -73.50975 | 4366 ft | 249 kts | 294° |
| 2026-05-05 06:00 | 40.81995 | -73.53026 | 4027 ft | 235 kts | 270° |
| 2026-05-05 06:00 | 40.81935 | -73.55096 | 3801 ft | 219 kts | 255° |
| 2026-05-05 06:01 | 40.81477 | -73.56971 | 3642 ft | 213 kts | 249° |
| 2026-05-05 06:01 | 40.80990 | -73.58796 | 3460 ft | 209 kts | 249° |
| 2026-05-05 06:01 | 40.80519 | -73.60573 | 3260 ft | 208 kts | 249° |
| 2026-05-05 06:01 | 40.80027 | -73.62387 | 3090 ft | 211 kts | 245° |
| 2026-05-05 06:02 | 40.79101 | -73.63864 | 2873 ft | 213 kts | 217° |
| 2026-05-05 06:02 | 40.77902 | -73.64970 | 2676 ft | 209 kts | 217° |
| 2026-05-05 06:02 | 40.76680 | -73.65997 | 2491 ft | 208 kts | 214° |
| 2026-05-05 06:02 | 40.75432 | -73.66967 | 2284 ft | 208 kts | 213° |
| 2026-05-05 06:03 | 40.74220 | -73.67909 | 2064 ft | 193 kts | 213° |
| 2026-05-05 06:03 | 40.73118 | -73.68769 | 1882 ft | 175 kts | 213° |
| 2026-05-05 06:03 | 40.72121 | -73.69547 | 1740 ft | 158 kts | 214° |
| 2026-05-05 06:03 | 40.71228 | -73.70246 | 1551 ft | 144 kts | 214° |
| 2026-05-05 06:04 | 40.70424 | -73.70874 | 1396 ft | 127 kts | 213° |
| 2026-05-05 06:04 | 40.69676 | -73.71461 | 1232 ft | 126 kts | 213° |
| 2026-05-05 06:04 | 40.68917 | -73.72056 | 1066 ft | 126 kts | 212° |
| 2026-05-05 06:04 | 40.68240 | -73.72584 | 919 ft | 132 kts | 211° |
| 2026-05-05 06:05 | 40.67424 | -73.73220 | 722 ft | 137 kts | 210° |
| 2026-05-05 06:05 | 40.66613 | -73.73856 | 542 ft | 138 kts | 209° |
| 2026-05-05 06:05 | 40.65782 | -73.74493 | 355 ft | 138 kts | 208° |
| 2026-05-05 06:05 | 40.64951 | -73.75135 | 181 ft | 139 kts | 210° |
| 2026-05-05 06:06 | 40.64153 | -73.75772 | 29 ft | 130 kts | 209° |
| 2026-05-05 06:06 | 40.63464 | -73.76315 | 23 ft | 96 kts | 210° |
| 2026-05-05 06:06 | 40.63060 | -73.76643 | 19 ft | 47 kts | 221° |
| 2026-05-05 06:06 | 40.62934 | -73.76890 | 19 ft | 23 kts | 250° |
| 2026-05-05 06:07 | 40.62974 | -73.77070 | 20 ft | 18 kts | 303° |
| 2026-05-05 06:07 | 40.63039 | -73.77211 | 20 ft | 18 kts | 301° |
| 2026-05-05 06:07 | 40.63095 | -73.77336 | 20 ft | 17 kts | 300° |
| 2026-05-05 06:07 | 40.63155 | -73.77466 | 21 ft | 16 kts | 300° |
| 2026-05-05 06:08 | 40.63211 | -73.77593 | 22 ft | 16 kts | 302° |
| 2026-05-05 06:08 | 40.63267 | -73.77714 | 23 ft | 15 kts | 301° |
| 2026-05-05 06:08 | 40.63320 | -73.77829 | 22 ft | 15 kts | 299° |
| 2026-05-05 06:08 | 40.63385 | -73.77917 | 20 ft | 13 kts | 4° |
| 2026-05-05 06:09 | 40.63461 | -73.77862 | 21 ft | 12 kts | 33° |
| 2026-05-05 06:09 | 40.63538 | -73.77818 | 19 ft | 12 kts | 352° |
| 2026-05-05 06:09 | 40.63606 | -73.77884 | 19 ft | 12 kts | 342° |
| 2026-05-05 06:09 | 40.63689 | -73.77901 | 20 ft | 12 kts | 353° |
| 2026-05-05 06:10 | 40.63771 | -73.77914 | 19 ft | 12 kts | 353° |
| 2026-05-05 06:10 | 40.63850 | -73.77927 | 19 ft | 11 kts | 353° |
| 2026-05-05 06:10 | 40.63927 | -73.77939 | 19 ft | 11 kts | 353° |
| 2026-05-05 06:10 | 40.63961 | -73.78002 | 19 ft | 9 kts | 264° |
| 2026-05-05 06:11 | 40.63956 | -73.78054 | 19 ft | 5 kts | 262° |
| 2026-05-05 06:11 | 40.63955 | -73.78063 | 21 ft | 0 kts | 263° |